Time;durP1;ratioP1;P1;durP2;ratioP2;P2;SDS_P1;SDS_P2;PMS_P1;PMS_P2;Temp;Humidity;BMP_temperature;BMP_pressure;BME280_temperature;BME280_humidity;BME280_pressure;Samples;Min_cycle;Max_cycle;Signal;HPM_P1;HPM_P2
2022/08/30 00:01:02;;;;;;;8.45;3.30;;;16.90;98.60;;;;;;5051217;28;20124;-45
2022/08/30 00:03:30;;;;;;;7.50;3.63;;;16.90;98.60;;;;;;5051563;28;20091;-45
2022/08/30 00:05:56;;;;;;;7.85;3.40;;;16.90;98.40;;;;;;5034926;28;20055;-47
2022/08/30 00:08:23;;;;;;;6.90;3.45;;;16.90;98.30;;;;;;5023577;28;20073;-48
2022/08/30 00:10:50;;;;;;;7.72;3.70;;;16.80;98.30;;;;;;5050036;28;20128;-47
2022/08/30 00:13:17;;;;;;;7.93;4.03;;;16.80;98.40;;;;;;5051614;28;20052;-47
2022/08/30 00:15:44;;;;;;;7.07;4.00;;;16.80;98.60;;;;;;5051927;28;20041;-48
2022/08/30 00:18:14;;;;;;;8.57;3.72;;;16.80;98.70;;;;;;5051257;28;20130;-47
2022/08/30 00:20:41;;;;;;;7.38;3.92;;;16.80;98.60;;;;;;5039318;28;20384;-48
2022/08/30 00:23:08;;;;;;;9.70;4.22;;;16.80;98.60;;;;;;5049565;28;20048;-46
2022/08/30 00:25:35;;;;;;;5.95;3.85;;;16.80;98.80;;;;;;5034425;28;20076;-47
2022/08/30 00:28:02;;;;;;;9.38;4.35;;;16.80;98.80;;;;;;5051595;28;20726;-47
2022/08/30 00:30:29;;;;;;;7.38;4.30;;;16.80;98.90;;;;;;5033409;28;20053;-47
2022/08/30 00:32:55;;;;;;;8.57;4.63;;;16.70;99.20;;;;;;5047972;28;20546;-47
2022/08/30 00:35:24;;;;;;;6.35;4.32;;;16.70;99.20;;;;;;5050556;28;20400;-44
2022/08/30 00:37:50;;;;;;;6.03;4.07;;;16.70;99.20;;;;;;5051578;28;20045;-40
2022/08/30 00:40:19;;;;;;;7.47;4.18;;;16.70;99.20;;;;;;5032929;28;20080;-48
2022/08/30 00:42:46;;;;;;;7.38;4.40;;;16.70;99.30;;;;;;5044048;28;20041;-46
2022/08/30 00:45:14;;;;;;;7.47;3.50;;;16.80;99.20;;;;;;5014553;28;20073;-45
2022/08/30 00:47:41;;;;;;;7.13;4.95;;;16.70;99.30;;;;;;5047883;28;20106;-45
2022/08/30 00:50:08;;;;;;;9.57;5.20;;;16.70;99.60;;;;;;5051308;28;20401;-46
2022/08/30 00:52:36;;;;;;;9.07;4.85;;;16.70;99.90;;;;;;5050134;28;20120;-47
2022/08/30 00:55:03;;;;;;;8.73;4.75;;;16.70;99.90;;;;;;5034598;28;20095;-46
2022/08/30 00:57:30;;;;;;;7.85;4.15;;;16.70;99.90;;;;;;5050724;28;20085;-47
2022/08/30 00:59:57;;;;;;;7.32;4.32;;;16.70;99.90;;;;;;5051332;28;20092;-47
2022/08/30 01:02:24;;;;;;;6.45;3.78;;;16.70;99.90;;;;;;5050571;28;20053;-50
2022/08/30 01:04:51;;;;;;;9.93;3.80;;;16.60;99.90;;;;;;5048798;28;20123;-46
2022/08/30 01:07:18;;;;;;;7.72;4.53;;;16.70;99.90;;;;;;5033474;28;20123;-41
2022/08/30 01:09:46;;;;;;;8.82;4.32;;;16.70;99.90;;;;;;5050659;28;20450;-47
2022/08/30 01:12:13;;;;;;;9.48;4.47;;;16.70;99.90;;;;;;5047049;28;20081;-48
2022/08/30 01:14:39;;;;;;;8.25;4.22;;;16.70;99.90;;;;;;5014542;28;20397;-51
2022/08/30 01:17:06;;;;;;;6.93;4.28;;;16.60;99.90;;;;;;5014891;28;20077;-47
2022/08/30 01:19:36;;;;;;;7.85;4.47;;;16.60;99.90;;;;;;5049895;28;20076;-46
2022/08/30 01:22:05;;;;;;;7.53;3.88;;;16.60;99.90;;;;;;5051290;28;20083;-44
2022/08/30 01:24:33;;;;;;;5.18;4.00;;;16.60;99.90;;;;;;5051358;28;20045;-48
2022/08/30 01:27:00;;;;;;;8.25;4.75;;;16.60;99.90;;;;;;5051668;28;20060;-46
2022/08/30 01:29:26;;;;;;;5.28;3.72;;;16.60;99.90;;;;;;5051098;28;20432;-46
2022/08/30 01:31:53;;;;;;;5.25;3.25;;;16.60;99.90;;;;;;5051769;28;20077;-46
2022/08/30 01:34:20;;;;;;;6.78;4.68;;;16.60;99.90;;;;;;5052387;28;20041;-46
2022/08/30 01:36:47;;;;;;;5.47;3.70;;;16.60;99.90;;;;;;5053526;28;20041;-43
2022/08/30 01:39:14;;;;;;;5.35;3.90;;;16.60;99.90;;;;;;5045896;28;20095;-50
2022/08/30 01:41:43;;;;;;;9.20;3.92;;;16.60;99.90;;;;;;5039752;28;20497;-46
2022/08/30 01:44:10;;;;;;;7.82;4.25;;;16.60;99.90;;;;;;5053584;28;20041;-37
2022/08/30 01:46:39;;;;;;;6.55;4.00;;;16.60;99.90;;;;;;5030131;28;20136;-47
2022/08/30 01:49:07;;;;;;;6.75;4.20;;;16.60;99.90;;;;;;5045206;28;20084;-45
2022/08/30 01:51:34;;;;;;;11.38;3.85;;;16.50;99.90;;;;;;5054180;28;20445;-46
2022/08/30 01:54:00;;;;;;;6.05;4.00;;;16.50;99.90;;;;;;5052824;28;20123;-46
2022/08/30 01:56:28;;;;;;;6.55;3.30;;;16.50;99.90;;;;;;5052772;28;20130;-45
2022/08/30 01:58:56;;;;;;;9.48;4.07;;;16.50;99.90;;;;;;5049388;28;20147;-45
2022/08/30 02:01:24;;;;;;;8.27;4.10;;;16.50;99.90;;;;;;5041293;28;20077;-46
2022/08/30 02:03:51;;;;;;;5.82;4.30;;;16.50;99.90;;;;;;5053019;28;20144;-45
2022/08/30 02:06:18;;;;;;;11.18;4.43;;;16.40;99.90;;;;;;5054209;28;20072;-47
2022/08/30 02:08:45;;;;;;;9.50;4.05;;;16.50;99.90;;;;;;5042533;28;20429;-44
2022/08/30 02:11:12;;;;;;;6.38;3.80;;;16.40;99.90;;;;;;5054682;28;20131;-48
2022/08/30 02:13:40;;;;;;;5.10;3.03;;;16.40;99.90;;;;;;5035657;28;20076;-49
2022/08/30 02:16:08;;;;;;;5.45;3.13;;;16.40;99.90;;;;;;5053001;28;20124;-48
2022/08/30 02:18:35;;;;;;;9.07;3.60;;;16.40;99.90;;;;;;5034066;28;20063;-45
2022/08/30 02:21:02;;;;;;;4.45;3.03;;;16.40;99.90;;;;;;5053316;28;20096;-46
2022/08/30 02:23:29;;;;;;;4.55;3.30;;;16.30;99.90;;;;;;5030497;28;20106;-47
2022/08/30 02:25:56;;;;;;;6.13;3.38;;;16.30;99.90;;;;;;5053782;28;20064;-48
2022/08/30 02:28:24;;;;;;;6.57;3.60;;;16.30;99.90;;;;;;5052534;28;20049;-49
2022/08/30 02:30:51;;;;;;;5.47;2.67;;;16.20;99.90;;;;;;5053872;28;20049;-45
2022/08/30 02:33:20;;;;;;;6.35;3.58;;;16.30;99.80;;;;;;5052518;28;20521;-46
2022/08/30 02:35:46;;;;;;;6.22;3.50;;;16.30;99.80;;;;;;5035908;28;20072;-48
2022/08/30 02:38:13;;;;;;;7.05;3.63;;;16.20;99.60;;;;;;5052272;28;20123;-47
2022/08/30 02:40:40;;;;;;;4.78;3.28;;;16.20;99.80;;;;;;5033594;28;20083;-47
2022/08/30 02:43:07;;;;;;;4.35;3.50;;;16.20;99.60;;;;;;5027325;28;20102;-47
2022/08/30 02:45:34;;;;;;;7.00;3.58;;;16.20;99.70;;;;;;5053592;28;20094;-49
2022/08/30 02:48:00;;;;;;;5.10;3.42;;;16.20;99.70;;;;;;5052812;28;20106;-47
2022/08/30 02:50:30;;;;;;;9.63;3.65;;;16.10;99.90;;;;;;5051108;28;20132;-49
2022/08/30 02:52:56;;;;;;;5.28;2.90;;;16.10;99.80;;;;;;5034896;28;20076;-50
2022/08/30 02:55:23;;;;;;;5.07;2.72;;;16.00;99.70;;;;;;5052781;28;20092;-49
2022/08/30 02:57:50;;;;;;;6.65;3.28;;;16.00;99.60;;;;;;5053389;28;20076;-43
2022/08/30 03:00:18;;;;;;;4.97;3.15;;;16.00;99.70;;;;;;5017444;28;20089;-47
2022/08/30 03:02:45;;;;;;;7.15;3.30;;;16.00;99.80;;;;;;5051842;28;20481;-47
2022/08/30 03:05:12;;;;;;;5.57;3.08;;;15.90;99.70;;;;;;5051095;28;20120;-48
2022/08/30 03:07:41;;;;;;;6.63;3.55;;;15.90;99.70;;;;;;5053340;28;20087;-45
2022/08/30 03:10:08;;;;;;;6.93;2.72;;;15.90;99.70;;;;;;5052724;28;20136;-46
2022/08/30 03:12:35;;;;;;;6.10;3.45;;;15.80;99.70;;;;;;5051981;28;20132;-47
2022/08/30 03:15:05;;;;;;;5.28;3.15;;;15.80;99.60;;;;;;5025815;28;20495;-45
2022/08/30 03:17:31;;;;;;;5.45;3.17;;;15.80;99.70;;;;;;5032322;28;20210;-49
2022/08/30 03:19:59;;;;;;;4.72;3.10;;;15.70;99.80;;;;;;5034394;28;20131;-48
2022/08/30 03:22:25;;;;;;;5.32;2.90;;;15.70;99.70;;;;;;5034512;28;20127;-46
2022/08/30 03:24:56;;;;;;;5.43;3.33;;;15.70;99.60;;;;;;5051846;28;20049;-45
2022/08/30 03:27:23;;;;;;;6.22;2.95;;;15.60;99.50;;;;;;5042598;28;20059;-48
2022/08/30 03:29:50;;;;;;;6.10;3.33;;;15.60;99.40;;;;;;5051166;28;20156;-45
2022/08/30 03:32:17;;;;;;;6.95;3.60;;;15.50;99.40;;;;;;5047691;28;20132;-46
2022/08/30 03:34:43;;;;;;;4.68;3.15;;;15.50;99.50;;;;;;5053389;28;20119;-47
2022/08/30 03:37:10;;;;;;;6.18;3.53;;;15.50;99.60;;;;;;5035633;28;20080;-46
2022/08/30 03:39:37;;;;;;;4.80;2.92;;;15.40;99.60;;;;;;5052192;28;20122;-47
2022/08/30 03:42:05;;;;;;;4.38;2.70;;;15.40;99.50;;;;;;5051446;28;20087;-47
2022/08/30 03:44:32;;;;;;;3.78;3.08;;;15.40;99.40;;;;;;5027561;28;20081;-48
2022/08/30 03:46:59;;;;;;;8.18;3.85;;;15.30;99.30;;;;;;5045069;28;20127;-47
2022/08/30 03:49:26;;;;;;;6.80;3.38;;;15.30;99.40;;;;;;5051587;28;20045;-48
2022/08/30 03:51:53;;;;;;;4.43;3.38;;;15.30;99.50;;;;;;5051065;28;20084;-46
2022/08/30 03:54:19;;;;;;;7.03;3.63;;;15.20;99.40;;;;;;5034394;28;20076;-45
2022/08/30 03:56:46;;;;;;;6.55;3.35;;;15.20;99.50;;;;;;5052066;28;20129;-49
2022/08/30 03:59:14;;;;;;;5.13;3.40;;;15.20;99.60;;;;;;5050174;28;20051;-43
2022/08/30 04:01:41;;;;;;;4.57;3.20;;;15.10;99.60;;;;;;5032138;28;20149;-47
2022/08/30 04:04:08;;;;;;;6.63;3.67;;;15.10;99.50;;;;;;5052092;28;20396;-51
2022/08/30 04:06:35;;;;;;;5.95;3.30;;;15.10;99.50;;;;;;5033355;28;20124;-46
2022/08/30 04:09:02;;;;;;;6.15;4.00;;;15.00;99.50;;;;;;5028588;28;20545;-42
2022/08/30 04:11:29;;;;;;;7.72;3.95;;;15.00;99.60;;;;;;5047907;28;20041;-49
2022/08/30 04:13:55;;;;;;;6.93;4.35;;;15.00;99.70;;;;;;5051167;28;20060;-47
2022/08/30 04:16:23;;;;;;;5.30;3.53;;;14.90;99.90;;;;;;5020962;28;20056;-48
2022/08/30 04:18:50;;;;;;;5.38;3.70;;;14.90;99.90;;;;;;5050591;28;20132;-48
2022/08/30 04:21:17;;;;;;;6.88;3.83;;;14.90;99.90;;;;;;5033368;28;20068;-45
2022/08/30 04:23:44;;;;;;;7.03;4.03;;;14.80;99.90;;;;;;5051366;28;20044;-46
2022/08/30 04:26:11;;;;;;;7.13;3.53;;;14.80;99.90;;;;;;5023255;28;20041;-48
2022/08/30 04:28:38;;;;;;;7.13;3.05;;;14.80;99.90;;;;;;5027176;28;20087;-46
2022/08/30 04:31:08;;;;;;;7.03;3.70;;;14.70;99.90;;;;;;5033494;28;20077;-45
2022/08/30 04:33:36;;;;;;;5.43;3.67;;;14.70;99.80;;;;;;5051483;28;20128;-43
2022/08/30 04:36:03;;;;;;;4.53;3.60;;;14.70;99.90;;;;;;5048726;28;20140;-48
2022/08/30 04:38:30;;;;;;;7.53;3.40;;;14.60;99.80;;;;;;5050729;28;20045;-49
2022/08/30 04:40:57;;;;;;;6.47;3.50;;;14.60;99.90;;;;;;5050270;28;20115;-51
2022/08/30 04:43:25;;;;;;;5.20;4.00;;;14.60;99.80;;;;;;5033166;28;20127;-45
2022/08/30 04:45:52;;;;;;;6.07;3.90;;;14.60;99.80;;;;;;5050775;28;20120;-51
2022/08/30 04:48:18;;;;;;;4.72;3.13;;;14.50;99.90;;;;;;5031418;28;20141;-45
2022/08/30 04:50:47;;;;;;;6.43;4.32;;;14.50;99.90;;;;;;5050967;28;20469;-48
2022/08/30 04:53:13;;;;;;;7.15;4.13;;;14.50;99.90;;;;;;5032593;28;20403;-45
2022/08/30 04:55:40;;;;;;;7.25;3.83;;;14.40;99.90;;;;;;5034017;28;20076;-46
2022/08/30 04:58:07;;;;;;;4.38;3.78;;;14.40;99.90;;;;;;5032900;28;20081;-46
2022/08/30 05:00:34;;;;;;;7.63;3.78;;;14.40;99.90;;;;;;5048207;28;20072;-42
2022/08/30 05:03:00;;;;;;;5.93;4.00;;;14.40;99.90;;;;;;5033755;28;20127;-50
2022/08/30 05:05:40;;;;;;;5.18;3.30;;;14.40;99.90;;;;;;5050369;28;20079;-45
2022/08/30 05:08:09;;;;;;;5.20;3.97;;;14.30;99.90;;;;;;5033287;28;20055;-49
2022/08/30 05:10:38;;;;;;;7.05;4.50;;;14.30;99.90;;;;;;5048665;28;20531;-52
2022/08/30 05:13:04;;;;;;;6.80;4.55;;;14.30;99.90;;;;;;5030121;28;20496;-47
2022/08/30 05:15:31;;;;;;;13.02;5.57;;;14.30;99.90;;;;;;5052856;28;20136;-47
2022/08/30 05:17:58;;;;;;;7.07;4.88;;;14.20;99.90;;;;;;5050081;28;20045;-50
2022/08/30 05:20:25;;;;;;;8.05;4.50;;;14.20;99.90;;;;;;5036891;28;20072;-51
2022/08/30 05:22:51;;;;;;;8.15;5.05;;;14.20;99.90;;;;;;5036786;28;20073;-47
2022/08/30 05:25:20;;;;;;;8.98;5.97;;;14.20;99.90;;;;;;5052917;28;20539;-47
2022/08/30 05:27:47;;;;;;;12.43;6.85;;;14.20;99.90;;;;;;5053623;28;20425;-47
2022/08/30 05:30:15;;;;;;;7.35;5.88;;;14.20;99.90;;;;;;5034769;28;20056;-39
2022/08/30 05:32:42;;;;;;;5.85;4.90;;;14.20;99.90;;;;;;5050605;28;20042;-46
2022/08/30 05:35:10;;;;;;;9.05;6.93;;;14.30;99.90;;;;;;5023113;28;20144;-45
2022/08/30 05:37:37;;;;;;;9.73;6.75;;;14.20;99.90;;;;;;5049247;28;20037;-41
2022/08/30 05:40:05;;;;;;;8.10;6.05;;;14.20;99.90;;;;;;5035195;28;20049;-44
2022/08/30 05:42:34;;;;;;;11.00;8.70;;;14.20;99.90;;;;;;5053268;28;20055;-44
2022/08/30 05:45:01;;;;;;;13.45;6.78;;;14.20;99.90;;;;;;5054812;28;20045;-40
2022/08/30 05:47:28;;;;;;;8.70;5.57;;;14.20;99.90;;;;;;5036287;28;20127;-47
2022/08/30 05:49:54;;;;;;;8.98;5.10;;;14.20;99.90;;;;;;5052050;28;20140;-51
2022/08/30 05:52:21;;;;;;;12.32;7.07;;;14.20;99.90;;;;;;5026750;28;20126;-39
2022/08/30 05:54:52;;;;;;;12.55;7.38;;;14.30;99.90;;;;;;5019158;28;20160;-47
2022/08/30 05:57:19;;;;;;;10.63;6.78;;;14.30;99.90;;;;;;5052429;28;20044;-41
2022/08/30 05:59:47;;;;;;;11.25;7.00;;;14.30;99.90;;;;;;5048649;28;20148;-39
2022/08/30 06:02:13;;;;;;;14.48;7.60;;;14.30;99.90;;;;;;5029007;28;20132;-45
2022/08/30 06:04:40;;;;;;;11.80;7.03;;;14.40;99.90;;;;;;5052464;28;20041;-40
2022/08/30 06:07:07;;;;;;;9.30;7.10;;;14.50;99.90;;;;;;5053185;28;20483;-40
2022/08/30 06:09:35;;;;;;;12.40;7.22;;;14.50;99.90;;;;;;5051754;28;20135;-43
2022/08/30 06:12:02;;;;;;;9.15;6.70;;;14.60;99.90;;;;;;5053457;28;20435;-46
2022/08/30 06:14:29;;;;;;;8.23;5.80;;;14.70;99.90;;;;;;5052617;28;20098;-47
2022/08/30 06:16:57;;;;;;;12.23;6.50;;;14.80;99.90;;;;;;5049838;28;20079;-47
2022/08/30 06:19:24;;;;;;;12.68;6.75;;;14.90;99.90;;;;;;5052734;28;20453;-48
2022/08/30 06:21:51;;;;;;;9.02;6.30;;;15.00;99.90;;;;;;5049626;28;20381;-48
2022/08/30 06:24:18;;;;;;;11.65;5.38;;;15.10;99.90;;;;;;5045277;28;20076;-46
2022/08/30 06:26:45;;;;;;;7.97;5.57;;;15.20;99.90;;;;;;5049349;28;20590;-41
2022/08/30 06:29:16;;;;;;;9.25;5.22;;;15.30;99.90;;;;;;5049815;28;20049;-47
2022/08/30 06:31:43;;;;;;;10.27;5.68;;;15.40;99.90;;;;;;5051155;28;20477;-44
2022/08/30 06:34:11;;;;;;;7.70;5.80;;;15.40;99.90;;;;;;5049556;28;20491;-50
2022/08/30 06:36:38;;;;;;;7.72;5.22;;;15.60;99.90;;;;;;5051286;28;20064;-42
2022/08/30 06:39:05;;;;;;;6.90;4.78;;;15.70;99.90;;;;;;5028670;28;20131;-46
2022/08/30 06:41:33;;;;;;;9.25;5.28;;;15.80;99.90;;;;;;5043461;28;20072;-45
2022/08/30 06:44:01;;;;;;;8.40;4.78;;;15.90;99.90;;;;;;5052524;28;20037;-46
2022/08/30 06:46:31;;;;;;;7.03;4.40;;;16.00;99.90;;;;;;5051261;28;20122;-46
2022/08/30 06:48:57;;;;;;;7.05;3.95;;;16.10;99.90;;;;;;5035214;28;20107;-49
2022/08/30 06:51:27;;;;;;;8.82;3.72;;;16.20;99.90;;;;;;5047082;28;20064;-48
2022/08/30 06:53:53;;;;;;;8.38;3.88;;;16.30;99.90;;;;;;5051999;28;20484;-47
2022/08/30 06:56:20;;;;;;;8.60;3.00;;;16.40;99.90;;;;;;5049307;28;20091;-49
2022/08/30 06:58:47;;;;;;;6.30;2.85;;;16.60;99.90;;;;;;5043200;28;20049;-45
2022/08/30 07:01:14;;;;;;;6.18;2.55;;;16.60;99.90;;;;;;5046317;28;20540;-47
2022/08/30 07:03:41;;;;;;;8.13;2.72;;;16.70;99.90;;;;;;5045804;28;20056;-50
2022/08/30 07:06:08;;;;;;;9.65;2.65;;;16.90;99.90;;;;;;5053193;28;20098;-52
2022/08/30 07:08:36;;;;;;;9.75;2.55;;;17.00;99.90;;;;;;5024054;28;20057;-43
2022/08/30 07:11:04;;;;;;;8.30;2.40;;;17.10;99.90;;;;;;5044701;28;20128;-44
2022/08/30 07:13:30;;;;;;;5.13;1.83;;;17.20;99.90;;;;;;5047785;28;20043;-49
2022/08/30 07:15:57;;;;;;;9.27;1.88;;;17.30;99.90;;;;;;5033182;28;20070;-48
2022/08/30 07:21:11;;;;;;;6.97;1.77;;;17.50;99.80;;;;;;5051874;28;20045;-51
2022/08/30 07:23:39;;;;;;;8.25;2.10;;;17.70;99.50;;;;;;5051121;28;20517;-48
2022/08/30 07:26:06;;;;;;;6.25;1.65;;;17.80;99.30;;;;;;5048312;28;20059;-49
2022/08/30 07:28:33;;;;;;;3.53;1.52;;;17.90;99.30;;;;;;5051344;28;20132;-46
2022/08/30 07:31:00;;;;;;;3.22;1.38;;;18.10;98.60;;;;;;5030984;28;20073;-50
2022/08/30 07:33:27;;;;;;;3.55;1.33;;;18.20;98.50;;;;;;5042065;28;20045;-49
2022/08/30 07:35:54;;;;;;;4.88;1.80;;;18.30;98.30;;;;;;5032950;28;20419;-45
2022/08/30 07:38:21;;;;;;;5.82;1.70;;;18.40;97.80;;;;;;5051751;28;20528;-46
2022/08/30 07:40:49;;;;;;;4.90;1.83;;;18.50;97.50;;;;;;5031016;28;20538;-50
2022/08/30 07:43:15;;;;;;;5.45;1.50;;;18.60;97.40;;;;;;5031586;28;20041;-51
2022/08/30 07:45:42;;;;;;;7.80;1.67;;;18.70;97.50;;;;;;5050494;28;20040;-49
2022/08/30 07:48:10;;;;;;;4.80;1.58;;;18.80;96.90;;;;;;5051285;28;20045;-52
2022/08/30 07:50:37;;;;;;;6.07;1.65;;;18.90;96.60;;;;;;5052173;28;20072;-47
2022/08/30 07:53:04;;;;;;;3.85;1.05;;;19.00;96.20;;;;;;5048492;28;20037;-48
2022/08/30 07:55:31;;;;;;;4.75;1.50;;;19.20;95.70;;;;;;5051987;28;20045;-46
2022/08/30 07:57:59;;;;;;;7.43;1.50;;;19.30;95.20;;;;;;5048699;28;20033;-51
2022/08/30 08:00:25;;;;;;;5.13;1.60;;;19.40;94.60;;;;;;5048915;28;20102;-51
2022/08/30 08:02:53;;;;;;;5.15;1.33;;;19.50;94.40;;;;;;5044950;28;20037;-51
2022/08/30 08:05:19;;;;;;;2.90;1.20;;;19.60;93.90;;;;;;5050976;28;20052;-49
2022/08/30 08:07:46;;;;;;;2.90;1.58;;;19.70;94.20;;;;;;5041500;28;20064;-48
2022/08/30 08:10:13;;;;;;;3.63;1.77;;;19.90;93.80;;;;;;5047925;28;20052;-47
2022/08/30 08:12:40;;;;;;;3.00;1.35;;;20.10;93.30;;;;;;5048764;28;20388;-48
2022/08/30 08:15:09;;;;;;;5.32;1.60;;;20.20;93.20;;;;;;5049782;28;20045;-37
2022/08/30 08:17:36;;;;;;;1.90;1.20;;;20.30;92.80;;;;;;5046910;28;20040;-50
2022/08/30 08:20:03;;;;;;;2.38;1.30;;;20.40;92.20;;;;;;5033414;28;20077;-49
2022/08/30 08:22:30;;;;;;;3.03;1.30;;;20.40;91.40;;;;;;5028976;28;20120;-49
2022/08/30 08:24:56;;;;;;;4.57;1.40;;;20.40;91.30;;;;;;5047496;28;20098;-44
2022/08/30 08:27:24;;;;;;;3.83;1.30;;;20.50;90.90;;;;;;5048552;28;20056;-51
2022/08/30 08:29:51;;;;;;;4.80;1.75;;;20.60;90.40;;;;;;5034745;28;20041;-41
2022/08/30 08:32:19;;;;;;;4.35;1.38;;;20.70;90.00;;;;;;5051202;28;20052;-49
2022/08/30 08:34:46;;;;;;;4.40;1.55;;;20.70;89.10;;;;;;5050762;28;20743;-47
2022/08/30 08:37:12;;;;;;;3.80;1.63;;;20.80;89.80;;;;;;5027255;28;20048;-51
2022/08/30 08:39:39;;;;;;;4.15;1.42;;;20.90;88.70;;;;;;5033808;28;20052;-49
2022/08/30 08:42:10;;;;;;;1.92;1.23;;;21.10;88.80;;;;;;5031194;28;20079;-50
2022/08/30 08:44:45;;;;;;;4.15;1.58;;;21.20;87.80;;;;;;5055774;28;20538;-47
2022/08/30 08:47:14;;;;;;;3.13;1.77;;;21.30;86.80;;;;;;5054204;28;20048;-49
2022/08/30 08:49:45;;;;;;;3.55;1.73;;;21.40;86.80;;;;;;5055741;28;20124;-50
2022/08/30 08:55:00;;;;;;;3.20;1.50;;;21.70;86.40;;;;;;5056464;28;20408;-48
2022/08/30 08:57:35;;;;;;;4.90;1.63;;;21.80;84.40;;;;;;5055032;28;20080;-51
2022/08/30 09:00:02;;;;;;;3.10;1.40;;;21.90;84.40;;;;;;5053930;28;20444;-52
2022/08/30 09:02:39;;;;;;;3.95;1.45;;;22.00;84.40;;;;;;5048443;28;20048;-48
2022/08/30 09:05:08;;;;;;;1.70;1.10;;;22.20;82.40;;;;;;5027275;28;20068;-47
2022/08/30 09:07:36;;;;;;;3.05;1.50;;;22.20;83.40;;;;;;5051261;28;20075;-49
2022/08/30 09:10:04;;;;;;;3.58;1.30;;;22.30;81.80;;;;;;5038339;28;20103;-52
2022/08/30 09:12:31;;;;;;;3.42;1.30;;;22.50;81.00;;;;;;5056011;28;20134;-51
2022/08/30 09:15:01;;;;;;;2.47;1.38;;;22.60;80.20;;;;;;5038296;28;20098;-52
2022/08/30 09:17:28;;;;;;;2.20;1.30;;;22.70;79.50;;;;;;5054373;28;20049;-49
2022/08/30 09:19:58;;;;;;;3.78;1.20;;;22.70;79.20;;;;;;5032779;28;20082;-49
2022/08/30 09:22:31;;;;;;;2.88;1.23;;;22.80;78.10;;;;;;5037662;28;20100;-50
2022/08/30 09:25:01;;;;;;;4.15;1.25;;;22.80;78.10;;;;;;5055791;28;20083;-52
2022/08/30 09:27:29;;;;;;;2.10;1.45;;;22.80;77.80;;;;;;5037390;28;20057;-49
2022/08/30 09:29:59;;;;;;;6.45;1.35;;;22.90;76.70;;;;;;5037261;28;20052;-50
2022/08/30 09:32:28;;;;;;;2.55;1.30;;;23.00;77.60;;;;;;5055491;28;20036;-50
2022/08/30 09:34:55;;;;;;;3.92;1.30;;;23.20;76.90;;;;;;5055611;28;20460;-49
2022/08/30 09:37:29;;;;;;;1.67;1.02;;;23.40;76.70;;;;;;5055596;28;20049;-49
2022/08/30 09:39:56;;;;;;;3.13;1.25;;;23.50;75.60;;;;;;5053687;28;20090;-49
2022/08/30 09:42:24;;;;;;;6.68;1.50;;;23.50;74.20;;;;;;5054304;28;20439;-48
2022/08/30 09:44:51;;;;;;;3.97;1.10;;;23.50;73.50;;;;;;5055497;28;20056;-51
2022/08/30 09:47:19;;;;;;;3.90;1.10;;;23.50;73.80;;;;;;5055173;28;20460;-48
2022/08/30 09:49:46;;;;;;;1.58;1.05;;;23.60;72.70;;;;;;5036806;28;20449;-50
2022/08/30 09:52:18;;;;;;;4.05;1.00;;;23.60;72.40;;;;;;5055331;28;20057;-52
2022/08/30 09:55:03;;;;;;;5.15;1.38;;;23.60;72.30;;;;;;5054486;28;20572;-48
2022/08/30 09:57:32;;;;;;;1.10;0.90;;;23.60;71.70;;;;;;5053822;28;20465;-49
2022/08/30 10:00:02;;;;;;;2.38;1.35;;;23.80;72.70;;;;;;5052068;28;20056;-46
2022/08/30 10:02:47;;;;;;;5.70;1.65;;;23.90;71.80;;;;;;5037606;28;20088;-52
2022/08/30 10:05:18;;;;;;;3.92;1.30;;;24.00;70.60;;;;;;5055206;28;20088;-50
2022/08/30 10:07:49;;;;;;;2.10;1.08;;;24.00;69.80;;;;;;5054913;28;20477;-39
2022/08/30 10:10:19;;;;;;;6.50;1.48;;;24.00;70.40;;;;;;5036844;28;20045;-52
2022/08/30 10:12:58;;;;;;;3.10;1.20;;;24.20;69.40;;;;;;5036463;28;20076;-44
2022/08/30 10:15:25;;;;;;;4.72;1.17;;;24.20;69.40;;;;;;5055019;28;20045;-51
2022/08/30 10:17:55;;;;;;;2.92;1.30;;;24.30;69.20;;;;;;5054879;28;20044;-47
2022/08/30 10:20:26;;;;;;;5.32;1.38;;;24.40;68.20;;;;;;5036863;28;20041;-50
2022/08/30 10:22:54;;;;;;;3.60;1.38;;;24.40;68.30;;;;;;5037056;28;20083;-50
2022/08/30 10:25:25;;;;;;;3.55;1.35;;;24.40;68.10;;;;;;5054861;28;20133;-50
2022/08/30 10:27:54;;;;;;;5.47;1.33;;;24.50;67.90;;;;;;5054274;28;20376;-51
2022/08/30 10:30:21;;;;;;;4.45;1.00;;;24.60;67.60;;;;;;5053939;28;20128;-48
2022/08/30 10:32:50;;;;;;;6.30;1.40;;;24.60;67.90;;;;;;5053510;28;20049;-48
2022/08/30 10:35:18;;;;;;;6.47;1.38;;;24.60;68.40;;;;;;5054296;28;20076;-48
2022/08/30 10:37:47;;;;;;;4.40;1.17;;;24.70;67.30;;;;;;5054582;28;20116;-47
2022/08/30 10:43:04;;;;;;;7.80;1.25;;;25.00;66.10;;;;;;5047136;28;20041;-50
2022/08/30 10:45:32;;;;;;;1.33;0.98;;;25.00;65.50;;;;;;5053842;28;20135;-51
2022/08/30 10:48:00;;;;;;;2.50;1.13;;;25.00;65.40;;;;;;5054186;28;20536;-51
2022/08/30 10:50:30;;;;;;;3.65;1.20;;;24.90;64.80;;;;;;5053151;28;20044;-48
2022/08/30 10:52:59;;;;;;;5.45;1.10;;;25.00;66.10;;;;;;5053145;28;20063;-52
2022/08/30 10:55:27;;;;;;;6.57;1.20;;;25.00;65.50;;;;;;5053064;28;20040;-51
2022/08/30 10:57:54;;;;;;;1.63;1.20;;;25.00;64.70;;;;;;5052999;28;20045;-49
2022/08/30 11:00:25;;;;;;;3.25;1.20;;;25.00;64.60;;;;;;5051837;28;20057;-49
2022/08/30 11:03:21;;;;;;;2.05;1.13;;;25.10;65.90;;;;;;5035820;28;20065;-48
2022/08/30 11:06:00;;;;;;;2.63;1.00;;;25.30;65.10;;;;;;5035156;28;20051;-51
2022/08/30 11:08:55;;;;;;;2.50;1.00;;;25.40;64.80;;;;;;5036180;28;20118;-46
2022/08/30 11:11:27;;;;;;;5.65;1.20;;;25.50;63.60;;;;;;5052945;28;20140;-45
2022/08/30 11:13:54;;;;;;;3.83;1.10;;;25.60;64.10;;;;;;5035940;28;20079;-49
2022/08/30 11:16:33;;;;;;;5.78;1.30;;;25.70;63.50;;;;;;5036144;28;20526;-51
2022/08/30 11:19:00;;;;;;;3.58;1.00;;;25.90;65.20;;;;;;5052843;28;20053;-50
2022/08/30 11:21:32;;;;;;;4.10;1.15;;;25.90;63.10;;;;;;5037525;28;20045;-51
2022/08/30 11:24:08;;;;;;;3.38;1.10;;;26.00;63.40;;;;;;5040637;28;20528;-47
2022/08/30 11:26:59;;;;;;;6.50;1.20;;;26.20;63.20;;;;;;5039306;28;20051;-48
2022/08/30 11:29:34;;;;;;;4.47;1.20;;;26.30;60.40;;;;;;5033617;28;20103;-50
2022/08/30 11:32:22;;;;;;;2.60;0.90;;;26.10;60.00;;;;;;5034687;28;20055;-49
2022/08/30 11:34:59;;;;;;;3.72;1.30;;;26.10;62.40;;;;;;5053435;28;20131;-51
2022/08/30 11:37:36;;;;;;;6.78;1.40;;;26.30;62.10;;;;;;5052534;28;20065;-49
2022/08/30 11:40:04;;;;;;;4.13;1.38;;;26.30;60.60;;;;;;5052435;28;20044;-48
2022/08/30 11:42:33;;;;;;;5.43;1.23;;;26.40;60.60;;;;;;5035409;28;20053;-50
2022/08/30 11:45:39;;;;;;;3.42;1.30;;;26.40;60.60;;;;;;5052519;28;20072;-51
2022/08/30 11:48:08;;;;;;;3.63;1.13;;;26.50;60.50;;;;;;5052090;28;20045;-48
2022/08/30 11:50:39;;;;;;;1.90;1.00;;;26.60;59.80;;;;;;5051412;28;20572;-51
2022/08/30 11:53:10;;;;;;;4.10;1.48;;;26.60;58.10;;;;;;5052991;28;20564;-51
2022/08/30 11:55:49;;;;;;;3.30;1.60;;;26.40;58.60;;;;;;5053400;28;20049;-50
2022/08/30 11:58:22;;;;;;;5.20;1.27;;;26.40;60.10;;;;;;5053201;28;20138;-48
2022/08/30 12:00:49;;;;;;;4.15;1.17;;;26.40;58.20;;;;;;5034401;28;20386;-51
2022/08/30 12:03:31;;;;;;;4.55;1.30;;;26.40;58.40;;;;;;5033178;28;20052;-51
2022/08/30 12:05:59;;;;;;;3.28;1.50;;;26.40;58.20;;;;;;5053016;28;20100;-52
2022/08/30 12:08:52;;;;;;;2.50;1.52;;;26.30;58.70;;;;;;5053026;28;20052;-47
2022/08/30 12:11:52;;;;;;;2.92;1.30;;;26.40;59.70;;;;;;5034382;28;20388;-50
2022/08/30 12:14:43;;;;;;;5.93;1.90;;;26.60;58.00;;;;;;5051119;28;20053;-50
2022/08/30 12:20:22;;;;;;;3.27;1.13;;;26.90;57.20;;;;;;5051153;28;20496;-52
2022/08/30 12:22:49;;;;;;;2.78;1.20;;;26.80;55.70;;;;;;5022365;28;20103;-51
2022/08/30 12:25:20;;;;;;;2.72;1.40;;;26.80;57.50;;;;;;5052911;28;20077;-50
2022/08/30 12:27:47;;;;;;;2.08;1.08;;;27.00;57.00;;;;;;5052624;28;20488;-52
2022/08/30 12:30:14;;;;;;;3.78;1.20;;;27.00;56.50;;;;;;5051753;28;20051;-51
2022/08/30 12:32:43;;;;;;;2.10;1.00;;;27.00;56.00;;;;;;5051440;28;20083;-49
2022/08/30 12:35:18;;;;;;;6.68;1.20;;;27.10;56.60;;;;;;5044880;28;20496;-48
2022/08/30 12:37:55;;;;;;;2.28;1.02;;;27.20;57.50;;;;;;5048512;28;20049;-50
2022/08/30 12:40:23;;;;;;;5.97;1.38;;;27.40;57.40;;;;;;5050825;28;20133;-48
2022/08/30 12:42:51;;;;;;;4.38;1.00;;;27.40;57.20;;;;;;5052449;28;20052;-51
2022/08/30 12:45:20;;;;;;;3.10;1.10;;;27.30;57.60;;;;;;5033740;28;20052;-50
2022/08/30 12:47:48;;;;;;;2.40;1.00;;;27.30;57.20;;;;;;5051553;28;20048;-51
2022/08/30 12:50:16;;;;;;;3.92;1.23;;;27.20;57.20;;;;;;5050984;28;20161;-49
2022/08/30 12:52:44;;;;;;;5.65;1.13;;;27.30;56.80;;;;;;5034390;28;20094;-51
2022/08/30 12:55:15;;;;;;;2.10;0.93;;;27.20;56.70;;;;;;5032951;28;20041;-48
2022/08/30 12:57:42;;;;;;;1.60;0.88;;;27.30;56.40;;;;;;5034832;28;20052;-49
2022/08/30 13:00:10;;;;;;;1.40;1.08;;;27.30;57.20;;;;;;5050883;28;20478;-49
2022/08/30 13:02:50;;;;;;;2.63;1.10;;;27.30;56.60;;;;;;5052449;28;20052;-48
2022/08/30 13:05:45;;;;;;;4.07;1.20;;;27.30;57.10;;;;;;5035046;28;20055;-50